Linville, North Carolina
Current Conditions -  °F | °C
As of 3:35 AM on Sunday 23 Nov 2014 (Local Time) from KTNB Reporting Station
Overcast Overcast  
Wind Chill: 44°   Ceiling: 2200
Heat Index: 44°   Visibility: 10mi
Dew Point: 28°   Wind: 0mph
Humidity: 55%   Direction: NA
Pressure: 30.22"   Gusts: NA
Location:  36.07°N, 81.87°W
Report Text: KTNB 230835Z AUTO 00000KT 10SM BKN022 OVC031 07/M02 A3022 RMK AO2 T00651020
Loading
Personal Weather Stations






























Interactive Weather Map New forecast layout! Learn more

10-Day Weather Forecast

Advertisements
Track Severe Weather on mobile